createdAt,value
2018-10-01T00:02:12.066Z,95185.14
2018-10-01T00:04:40.037Z,95175.90
2018-10-01T00:07:12.622Z,95176.46
2018-10-01T00:09:40.851Z,95172.12
2018-10-01T00:12:09.842Z,95166.10
2018-10-01T00:14:38.284Z,95164.61
2018-10-01T00:17:06.849Z,95159.80
2018-10-01T00:19:40.421Z,95156.30
2018-10-01T00:22:14.253Z,95154.34
2018-10-01T00:24:43.269Z,95150.70
2018-10-01T00:27:12.016Z,95146.23
2018-10-01T00:29:40.190Z,95145.47
2018-10-01T00:32:09.210Z,95147.34
2018-10-01T00:34:37.452Z,95141.60
2018-10-01T00:37:06.799Z,95135.17
2018-10-01T00:39:34.900Z,95137.59
2018-10-01T00:42:03.586Z,95128.26
2018-10-01T00:44:31.983Z,95127.19
2018-10-01T00:47:00.490Z,95122.82
2018-10-01T00:49:28.746Z,95116.36
2018-10-01T00:51:57.102Z,95116.36
2018-10-01T00:54:25.990Z,95116.19
2018-10-01T00:56:55.084Z,95114.69
2018-10-01T00:59:23.877Z,95107.35
2018-10-01T01:01:52.199Z,95114.26
2018-10-01T01:04:20.645Z,95111.53
2018-10-01T01:06:50.215Z,95110.20
2018-10-01T01:09:19.180Z,95103.88
2018-10-01T01:11:49.061Z,95106.89
2018-10-01T01:14:17.351Z,95096.37
2018-10-01T01:16:46.741Z,95094.11
2018-10-01T01:19:15.514Z,95092.42
2018-10-01T01:21:43.498Z,95081.91
2018-10-01T01:24:11.458Z,95082.67
2018-10-01T01:26:40.469Z,95081.66
2018-10-01T01:29:08.864Z,95081.92
2018-10-01T01:31:37.460Z,95076.66
2018-10-01T01:34:06.584Z,95079.36
2018-10-01T01:36:35.301Z,95068.82
2018-10-01T01:39:04.313Z,95070.20
2018-10-01T01:41:32.900Z,95072.59
2018-10-01T01:44:05.815Z,95066.75
2018-10-01T01:46:34.156Z,95069.47
2018-10-01T01:49:02.868Z,95061.94
2018-10-01T01:51:31.204Z,95054.57
2018-10-01T01:53:59.736Z,95063.13
2018-10-01T01:56:29.247Z,95052.61
2018-10-01T01:58:58.151Z,95055.17
2018-10-01T02:01:27.477Z,95048.27
2018-10-01T02:03:55.851Z,95043.28
2018-10-01T02:06:23.905Z,95046.59
2018-10-01T02:08:52.831Z,95042.81
2018-10-01T02:11:21.272Z,95041.63
2018-10-01T02:13:49.394Z,95039.09
2018-10-01T02:16:17.645Z,95037.14
2018-10-01T02:18:45.638Z,95039.08
2018-10-01T02:21:13.594Z,95048.74
2018-10-01T02:23:42.667Z,95042.55
2018-10-01T02:26:50.273Z,95040.00
2018-10-01T02:29:18.342Z,95039.86
2018-10-01T02:31:46.188Z,95039.69
2018-10-01T02:34:14.234Z,95033.23
2018-10-01T02:36:42.198Z,95034.59
2018-10-01T02:39:11.783Z,95031.87
2018-10-01T02:41:39.805Z,95020.58
2018-10-01T02:44:07.758Z,95022.98
2018-10-01T02:46:35.847Z,95016.37
2018-10-01T02:49:03.954Z,95016.97
2018-10-01T02:51:35.385Z,95019.97
2018-10-01T02:54:08.663Z,95011.26
2018-10-01T02:56:36.518Z,95011.23
2018-10-01T02:59:04.466Z,95010.97
2018-10-01T03:01:32.395Z,95007.48
2018-10-01T03:04:00.248Z,95006.44
2018-10-01T03:06:28.192Z,95007.04
2018-10-01T03:08:56.049Z,95003.42
2018-10-01T03:11:24.047Z,95002.23
2018-10-01T03:13:51.937Z,94996.36
2018-10-01T03:16:19.880Z,94992.92
2018-10-01T03:18:47.833Z,94998.92
2018-10-01T03:21:15.837Z,94992.61
2018-10-01T03:23:43.719Z,94998.02
2018-10-01T03:26:11.610Z,94984.03
2018-10-01T03:28:39.509Z,94987.04
2018-10-01T03:31:07.454Z,94990.52
2018-10-01T03:33:35.357Z,94982.69
2018-10-01T03:36:03.255Z,94985.25
2018-10-01T03:38:31.155Z,94324.57
2018-10-01T03:40:59.123Z,94974.12
2018-10-01T03:43:26.978Z,94967.78
2018-10-01T03:45:54.923Z,94971.70
2018-10-01T03:48:22.815Z,94970.52
2018-10-01T03:50:50.850Z,94962.53
2018-10-01T03:53:18.863Z,94949.90
2018-10-01T03:55:46.805Z,94951.11
2018-10-01T03:58:14.675Z,94955.47
2018-10-01T04:00:42.561Z,94953.36
2018-10-01T04:03:10.598Z,94954.73
2018-10-01T04:05:38.735Z,94951.86
2018-10-01T04:08:06.593Z,94942.07
2018-10-01T04:10:34.481Z,94942.38
2018-10-01T04:13:02.473Z,94939.68
2018-10-01T04:15:30.548Z,94939.68
2018-10-01T04:17:58.530Z,94941.63
2018-10-01T04:20:26.466Z,94934.72
2018-10-01T04:22:54.421Z,94929.16
2018-10-01T04:25:22.641Z,94936.97
2018-10-01T04:27:50.639Z,94936.66
2018-10-01T04:30:19.048Z,94936.80
2018-10-01T04:32:47.116Z,94939.52
2018-10-01T04:35:15.182Z,94926.59
2018-10-01T04:37:43.094Z,94927.16
2018-10-01T04:40:11.013Z,94927.02
2018-10-01T04:42:39.111Z,94924.63
2018-10-01T04:45:07.187Z,94922.36
2018-10-01T04:47:35.291Z,94917.41
2018-10-01T04:50:03.291Z,94921.19
2018-10-01T04:52:31.619Z,94925.98
2018-10-01T04:54:59.609Z,94917.23
2018-10-01T04:57:27.587Z,94917.13
2018-10-01T04:59:55.585Z,94916.19
2018-10-01T05:02:23.499Z,94914.52
2018-10-01T05:04:51.486Z,94917.50
2018-10-01T05:07:19.423Z,94914.20
2018-10-01T05:09:47.493Z,94852.02
2018-10-01T05:12:15.544Z,94904.00
2018-10-01T05:14:44.194Z,94914.95
2018-10-01T05:17:12.100Z,94918.72
2018-10-01T05:19:40.023Z,94813.73
2018-10-01T05:22:07.974Z,94903.37
2018-10-01T05:24:35.985Z,94901.23
2018-10-01T05:27:03.888Z,94904.06
2018-10-01T05:29:32.145Z,94899.73
2018-10-01T05:32:00.451Z,94898.57
2018-10-01T05:34:28.384Z,94895.61
2018-10-01T05:36:56.563Z,94892.13
2018-10-01T05:39:24.535Z,94893.86
2018-10-01T05:41:52.641Z,94892.05
2018-10-01T05:44:20.649Z,94891.46
2018-10-01T05:46:48.600Z,94896.41
2018-10-01T05:49:16.723Z,94894.13
2018-10-01T05:51:44.692Z,94893.66
2018-10-01T05:54:12.586Z,94897.47
2018-10-01T05:56:40.724Z,94900.63
2018-10-01T05:59:09.084Z,94900.45
2018-10-01T06:01:37.265Z,94897.84
2018-10-01T06:04:05.322Z,94905.65
2018-10-01T06:06:33.240Z,94896.48
2018-10-01T06:09:02.219Z,94898.28
2018-10-01T06:11:30.147Z,94897.53
2018-10-01T06:13:58.111Z,94897.41
2018-10-01T06:16:26.230Z,94898.80
2018-10-01T06:18:54.202Z,94901.52
2018-10-01T06:21:22.172Z,94896.84
2018-10-01T06:23:56.642Z,94896.06
2018-10-01T06:26:24.542Z,94899.03
2018-10-01T06:28:52.548Z,94900.56
2018-10-01T06:31:20.633Z,94901.61
2018-10-01T06:33:49.567Z,94899.93
2018-10-01T06:36:17.783Z,94893.61
2018-10-01T06:38:45.748Z,94893.78
2018-10-01T06:41:13.737Z,94895.51
2018-10-01T06:43:41.909Z,94903.85
2018-10-01T06:46:10.024Z,94901.07
2018-10-01T06:48:38.031Z,94896.53
2018-10-01T06:51:06.465Z,94895.64
2018-10-01T06:53:34.414Z,94904.88
2018-10-01T06:56:02.404Z,94902.44
2018-10-01T06:58:30.560Z,94902.33
2018-10-01T07:00:59.166Z,94900.38
2018-10-01T07:03:27.180Z,94903.63
2018-10-01T07:05:55.372Z,94906.50
2018-10-01T07:08:23.315Z,94904.65
2018-10-01T07:10:52.253Z,94907.83
2018-10-01T07:13:20.431Z,94908.09
2018-10-01T07:15:48.419Z,94901.52
2018-10-01T07:18:23.399Z,94904.71
2018-10-01T07:20:52.319Z,94892.54
2018-10-01T07:23:22.453Z,94898.67
2018-10-01T07:25:51.156Z,94905.13
2018-10-01T07:28:19.123Z,94894.61
2018-10-01T07:30:47.868Z,94897.20
2018-10-01T07:33:15.828Z,94897.15
2018-10-01T07:35:44.694Z,94895.62
2018-10-01T07:38:13.274Z,94891.14
2018-10-01T07:40:41.487Z,94887.34
2018-10-01T07:43:09.539Z,94885.80
2018-10-01T07:45:37.709Z,94883.20
2018-10-01T07:48:05.727Z,94886.73
2018-10-01T07:50:33.865Z,94879.94
2018-10-01T07:53:01.867Z,94879.67
2018-10-01T07:55:29.837Z,94876.98
2018-10-01T07:57:58.050Z,94878.76
2018-10-01T08:00:26.110Z,94878.98
2018-10-01T08:02:54.268Z,94879.64
2018-10-01T08:05:22.477Z,94876.75
2018-10-01T08:07:50.386Z,94878.42
2018-10-01T08:10:18.690Z,94870.65
2018-10-01T08:12:46.729Z,94868.72
2018-10-01T08:15:16.649Z,94874.89
2018-10-01T08:17:44.574Z,94869.64
2018-10-01T08:20:12.696Z,94868.51
2018-10-01T08:22:40.594Z,94862.35
2018-10-01T08:25:08.584Z,94854.23
2018-10-01T08:27:36.585Z,94857.89
2018-10-01T08:30:04.791Z,94857.40
2018-10-01T08:32:32.893Z,94857.02
2018-10-01T08:35:00.829Z,94853.63
2018-10-01T08:37:28.910Z,94841.60
2018-10-01T08:39:56.933Z,94846.32
2018-10-01T08:42:24.970Z,94849.45
2018-10-01T08:44:53.106Z,94837.61
2018-10-01T08:47:21.456Z,94839.18
2018-10-01T08:52:01.805Z,94842.96
2018-10-01T08:54:34.556Z,94835.27
2018-10-01T08:57:02.767Z,94830.98
2018-10-01T08:59:31.063Z,94839.39
2018-10-01T09:01:59.646Z,94833.88
2018-10-01T09:04:27.665Z,94831.12
2018-10-01T09:06:55.759Z,94831.20
2018-10-01T09:09:23.702Z,94830.81
2018-10-01T09:11:51.667Z,94823.23
2018-10-01T09:14:19.800Z,94813.08
2018-10-01T09:16:47.754Z,94817.83
2018-10-01T09:19:15.951Z,94815.63
2018-10-01T09:21:43.868Z,94804.93
2018-10-01T09:24:12.768Z,94817.39
2018-10-01T09:26:40.862Z,94806.30
2018-10-01T09:29:08.968Z,94798.83
2018-10-01T09:31:37.028Z,94806.13
2018-10-01T09:34:05.208Z,94800.98
2018-10-01T09:36:33.153Z,94800.44
2018-10-01T09:39:01.228Z,94800.73
2018-10-01T09:41:29.330Z,94793.84
2018-10-01T09:43:57.912Z,94793.98
2018-10-01T09:46:26.350Z,94793.83
2018-10-01T09:48:54.530Z,94785.09
2018-10-01T09:51:23.349Z,94788.45
2018-10-01T09:53:51.438Z,94779.30
2018-10-01T09:56:19.509Z,94787.19
2018-10-01T09:58:47.767Z,94779.21
2018-10-01T10:01:16.528Z,94775.41
2018-10-01T10:03:44.922Z,94770.29
2018-10-01T10:06:13.659Z,94767.67
2018-10-01T10:08:41.821Z,94754.34
2018-10-01T10:11:10.524Z,94313.41
2018-10-01T10:13:38.695Z,94754.50
2018-10-01T10:16:07.712Z,94749.81
2018-10-01T10:18:35.737Z,94755.87
2018-10-01T10:21:03.925Z,94749.55
2018-10-01T10:23:31.923Z,94742.74
2018-10-01T10:26:00.099Z,94738.35
2018-10-01T10:28:28.127Z,94735.14
2018-10-01T10:30:56.117Z,94735.63
2018-10-01T10:33:24.151Z,94735.36
2018-10-01T10:35:53.482Z,94723.96
2018-10-01T10:38:21.629Z,94733.41
2018-10-01T10:40:49.990Z,94728.27
2018-10-01T10:43:18.820Z,94728.17
2018-10-01T10:45:46.864Z,94726.36
2018-10-01T10:48:15.057Z,94714.77
2018-10-01T10:50:45.021Z,94711.12
2018-10-01T10:53:12.992Z,94706.27
2018-10-01T10:55:41.094Z,94698.52
2018-10-01T10:58:09.304Z,94705.42
2018-10-01T11:00:37.237Z,94699.25
2018-10-01T11:03:05.254Z,94693.63
2018-10-01T11:05:33.370Z,94693.59
2018-10-01T11:08:01.537Z,94688.81
2018-10-01T11:10:29.718Z,94684.22
2018-10-01T11:12:57.826Z,94677.69
2018-10-01T11:15:26.401Z,94675.06
2018-10-01T11:17:54.554Z,94674.27
2018-10-01T11:20:23.210Z,94667.65
2018-10-01T11:22:51.208Z,94662.23
2018-10-01T11:25:19.580Z,94660.03
2018-10-01T11:27:47.585Z,94662.13
2018-10-01T11:30:15.534Z,94651.00
2018-10-01T11:32:43.768Z,94657.08
2018-10-01T11:35:11.861Z,94653.19
2018-10-01T11:37:39.838Z,94655.07
2018-10-01T11:40:07.925Z,94649.05
2018-10-01T11:42:35.830Z,94644.95
2018-10-01T11:45:04.148Z,94644.81
2018-10-01T11:47:32.115Z,94645.86
2018-10-01T11:50:00.051Z,94638.41
2018-10-01T11:52:28.260Z,94640.26
2018-10-01T11:54:57.334Z,94630.34
2018-10-01T11:57:25.328Z,94636.96
2018-10-01T11:59:54.322Z,94625.12
2018-10-01T12:02:22.498Z,94634.48
2018-10-01T12:04:50.624Z,94631.36
2018-10-01T12:07:18.938Z,94628.25
2018-10-01T12:09:46.987Z,94633.19
2018-10-01T12:12:14.844Z,94620.87
2018-10-01T12:14:42.830Z,94637.08
2018-10-01T12:17:10.786Z,94636.19
2018-10-01T12:19:38.886Z,94629.95
2018-10-01T12:22:07.058Z,94631.20
2018-10-01T12:24:35.252Z,94631.02
2018-10-01T12:27:03.457Z,94620.30
2018-10-01T12:29:31.427Z,94620.55
2018-10-01T12:31:59.986Z,94618.59
2018-10-01T12:34:28.058Z,94609.66
2018-10-01T12:36:56.686Z,94606.55
2018-10-01T12:39:24.659Z,94611.91
2018-10-01T12:41:52.610Z,94618.52
2018-10-01T12:44:20.719Z,94615.09
2018-10-01T12:46:49.074Z,94610.23
2018-10-01T12:49:17.437Z,94606.87
2018-10-01T12:51:45.595Z,94609.40
2018-10-01T12:54:14.166Z,94602.53
2018-10-01T12:56:42.526Z,94598.70
2018-10-01T12:59:10.731Z,94596.23
2018-10-01T13:01:38.792Z,94604.64
2018-10-01T13:04:06.714Z,94601.66
2018-10-01T13:06:35.012Z,94593.25
2018-10-01T13:09:03.265Z,94587.07
2018-10-01T13:11:33.202Z,94584.23
2018-10-01T13:14:01.250Z,94583.81
2018-10-01T13:16:29.362Z,94587.06
2018-10-01T13:18:57.501Z,94578.78
2018-10-01T13:21:25.569Z,94566.30
2018-10-01T13:23:53.672Z,94569.44
2018-10-01T13:26:25.561Z,94570.72
2018-10-01T13:28:54.821Z,94571.31
2018-10-01T13:31:22.856Z,94566.13
2018-10-01T13:33:50.964Z,94567.60
2018-10-01T13:36:19.544Z,94574.33
2018-10-01T13:38:47.606Z,94571.52
2018-10-01T13:41:16.251Z,94563.55
2018-10-01T13:43:44.346Z,94558.18
2018-10-01T13:46:12.490Z,94567.36
2018-10-01T13:48:40.504Z,94559.14
2018-10-01T13:51:08.663Z,94552.69
2018-10-01T13:53:36.811Z,94553.29
2018-10-01T13:56:05.816Z,94553.55
2018-10-01T13:58:45.439Z,94561.47
2018-10-01T14:01:13.488Z,94558.98
2018-10-01T14:03:41.776Z,94564.81
2018-10-01T14:06:10.969Z,94555.83
2018-10-01T14:08:38.998Z,94559.87
2018-10-01T14:11:07.014Z,94555.78
2018-10-01T14:13:35.050Z,94558.42
2018-10-01T14:16:04.655Z,94557.88
2018-10-01T14:18:32.756Z,94555.05
2018-10-01T14:21:00.732Z,94566.22
2018-10-01T14:23:28.821Z,94559.35
2018-10-01T14:25:57.009Z,94555.80
2018-10-01T14:28:25.036Z,94556.00
2018-10-01T14:30:52.993Z,94556.05
2018-10-01T14:33:21.017Z,94545.73
2018-10-01T14:35:48.938Z,94558.80
2018-10-01T14:38:16.975Z,94547.06
2018-10-01T14:40:44.970Z,94555.34
2018-10-01T14:43:12.983Z,94543.35
2018-10-01T14:45:40.914Z,94549.25
2018-10-01T14:48:08.868Z,94554.13
2018-10-01T14:50:36.938Z,94552.74
2018-10-01T14:53:05.049Z,94558.08
2018-10-01T14:55:33.042Z,94554.84
2018-10-01T14:58:01.615Z,94559.28
2018-10-01T15:00:30.719Z,94556.48
2018-10-01T15:02:58.512Z,94557.63
2018-10-01T15:05:26.645Z,94551.81
2018-10-01T15:07:54.639Z,94542.81
2018-10-01T15:10:23.139Z,94544.52
2018-10-01T15:12:51.188Z,94536.00
2018-10-01T15:15:20.401Z,94535.52
2018-10-01T15:17:48.534Z,94532.69
2018-10-01T15:20:16.749Z,94535.05
2018-10-01T15:22:44.872Z,94530.53
2018-10-01T15:25:12.948Z,94518.55
2018-10-01T15:27:40.991Z,94539.27
2018-10-01T15:30:09.173Z,94540.31
2018-10-01T15:32:37.218Z,94550.87
2018-10-01T15:35:05.462Z,94546.19
2018-10-01T15:37:33.593Z,94551.87
2018-10-01T15:40:01.563Z,94557.47
2018-10-01T15:42:29.626Z,94561.30
2018-10-01T15:44:57.562Z,94566.91
2018-10-01T15:47:26.236Z,94566.95
2018-10-01T15:49:54.470Z,94554.78
2018-10-01T15:52:22.620Z,94562.98
2018-10-01T15:54:50.832Z,94567.34
2018-10-01T15:57:18.966Z,94558.55
2018-10-01T15:59:46.867Z,94565.50
2018-10-01T16:02:16.714Z,94561.53
2018-10-01T16:04:44.859Z,94559.41
2018-10-01T16:07:12.991Z,94561.27
2018-10-01T16:09:41.575Z,94564.27
2018-10-01T16:12:09.859Z,94557.06
2018-10-01T16:14:44.514Z,94563.13
2018-10-01T16:17:12.513Z,94571.67
2018-10-01T16:19:40.401Z,94564.45
2018-10-01T16:22:08.381Z,94578.09
2018-10-01T16:24:36.648Z,94582.30
2018-10-01T16:27:05.788Z,94586.90
2018-10-01T16:29:34.943Z,94587.99
2018-10-01T16:32:03.675Z,94580.38
2018-10-01T16:34:32.140Z,94586.42
2018-10-01T16:37:01.573Z,94591.96
2018-10-01T16:39:29.686Z,94590.34
2018-10-01T16:41:57.688Z,94600.17
2018-10-01T16:44:25.688Z,94602.66
2018-10-01T16:46:53.757Z,94601.05
2018-10-01T16:49:22.010Z,94607.72
2018-10-01T16:51:49.926Z,94614.63
2018-10-01T16:54:17.961Z,94620.06
2018-10-01T16:56:45.892Z,94616.06
2018-10-01T16:59:13.919Z,94622.76
2018-10-01T17:01:42.128Z,94628.83
2018-10-01T17:04:11.673Z,94635.84
2018-10-01T17:06:39.619Z,94637.44
2018-10-01T17:09:08.358Z,94636.52
2018-10-01T17:11:36.483Z,94638.67
2018-10-01T17:14:04.594Z,94637.38
2018-10-01T17:16:32.489Z,94644.62
2018-10-01T17:19:00.439Z,94641.99
2018-10-01T17:21:28.401Z,94654.31
2018-10-01T17:23:56.397Z,94655.86
2018-10-01T17:26:24.346Z,94655.47
2018-10-01T17:28:52.542Z,94670.71
2018-10-01T17:31:21.399Z,94674.30
2018-10-01T17:33:52.593Z,94678.52
2018-10-01T17:36:20.608Z,94685.50
2018-10-01T17:38:49.337Z,94682.41
2018-10-01T17:41:17.909Z,94685.19
2018-10-01T17:43:46.791Z,94699.47
2018-10-01T17:46:14.940Z,94689.34
2018-10-01T17:48:47.774Z,94690.70
2018-10-01T17:51:17.415Z,94692.45
2018-10-01T17:53:45.516Z,94694.35
2018-10-01T17:56:13.378Z,94698.02
2018-10-01T17:58:41.957Z,94695.62
2018-10-01T18:01:09.989Z,94693.11
2018-10-01T18:03:37.986Z,94684.78
2018-10-01T18:06:06.047Z,94703.92
2018-10-01T18:08:34.070Z,94693.00
2018-10-01T18:11:02.146Z,94697.37
2018-10-01T18:13:30.319Z,94696.48
2018-10-01T18:15:58.286Z,94695.25
2018-10-01T18:18:26.206Z,94708.92
2018-10-01T18:20:54.300Z,94714.27
2018-10-01T18:23:22.225Z,94714.03
2018-10-01T18:25:50.196Z,94710.66
2018-10-01T18:28:18.239Z,94710.53
2018-10-01T18:30:46.307Z,94715.98
2018-10-01T18:33:14.386Z,94716.67
2018-10-01T18:35:43.051Z,94719.23
2018-10-01T18:38:13.196Z,94718.30
2018-10-01T18:40:42.932Z,94722.31
2018-10-01T18:43:11.733Z,94719.78
2018-10-01T18:45:39.767Z,94721.02
2018-10-01T18:48:07.809Z,94720.86
2018-10-01T18:50:35.836Z,94735.75
2018-10-01T18:53:03.784Z,94739.29
2018-10-01T18:55:31.727Z,94733.91
2018-10-01T18:57:59.650Z,94732.27
2018-10-01T19:00:27.594Z,94734.75
2018-10-01T19:02:55.685Z,94737.13
2018-10-01T19:05:23.980Z,94678.04
2018-10-01T19:07:51.866Z,94737.61
2018-10-01T19:10:20.748Z,94743.05
2018-10-01T19:12:49.073Z,94741.93
2018-10-01T19:15:18.048Z,94742.45
2018-10-01T19:17:46.428Z,94749.46
2018-10-01T19:20:14.310Z,94757.08
2018-10-01T19:22:42.548Z,94747.61
2018-10-01T19:25:10.748Z,94741.95
2018-10-01T19:27:39.728Z,94754.47
2018-10-01T19:30:07.991Z,94753.34
2018-10-01T19:32:35.860Z,94753.64
2018-10-01T19:35:04.002Z,94754.00
2018-10-01T19:37:32.220Z,94752.34
2018-10-01T19:40:01.581Z,94753.53
2018-10-01T19:42:30.577Z,94751.48
2018-10-01T19:44:59.265Z,94748.66
2018-10-01T19:50:05.193Z,94760.98
2018-10-01T19:52:35.303Z,94754.12
2018-10-01T19:55:03.560Z,94763.55
2018-10-01T19:57:31.740Z,94759.80
2018-10-01T20:00:01.051Z,94759.11
2018-10-01T20:02:29.745Z,94763.93
2018-10-01T20:04:57.761Z,94763.63
2018-10-01T20:07:28.809Z,94767.81
2018-10-01T20:09:57.157Z,94766.34
2018-10-01T20:12:25.199Z,94766.97
2018-10-01T20:14:53.869Z,94769.45
2018-10-01T20:17:22.554Z,94767.50
2018-10-01T20:19:50.529Z,94773.31
2018-10-01T20:22:19.509Z,94766.69
2018-10-01T20:24:48.001Z,94772.76
2018-10-01T20:27:15.991Z,94778.59
2018-10-01T20:29:44.258Z,94778.68
2018-10-01T20:32:12.924Z,94775.18
2018-10-01T20:34:40.905Z,94772.91
2018-10-01T20:37:08.852Z,94770.88
2018-10-01T20:39:36.978Z,94766.94
2018-10-01T20:42:05.007Z,94773.20
2018-10-01T20:44:32.970Z,94768.88
2018-10-01T20:47:01.063Z,94768.59
2018-10-01T20:49:28.954Z,94769.80
2018-10-01T20:51:56.966Z,94774.66
2018-10-01T20:54:24.903Z,94778.28
2018-10-01T20:56:52.932Z,94771.37
2018-10-01T20:59:20.992Z,94784.18
2018-10-01T21:01:48.919Z,94794.31
2018-10-01T21:04:16.900Z,94793.84
2018-10-01T21:06:44.806Z,94791.30
2018-10-01T21:09:13.457Z,94802.58
2018-10-01T21:11:44.869Z,94805.69
2018-10-01T21:14:12.981Z,94805.38
2018-10-01T21:16:40.854Z,94801.28
2018-10-01T21:19:08.798Z,94801.28
2018-10-01T21:21:36.678Z,94806.38
2018-10-01T21:24:04.801Z,94812.95
2018-10-01T21:26:32.730Z,94807.17
2018-10-01T21:29:00.696Z,94806.06
2018-10-01T21:31:28.699Z,94809.41
2018-10-01T21:33:56.703Z,94811.34
2018-10-01T21:36:24.854Z,94804.70
2018-10-01T21:38:52.760Z,94810.19
2018-10-01T21:41:20.894Z,94813.03
2018-10-01T21:43:48.913Z,94805.52
2018-10-01T21:46:16.789Z,94810.32
2018-10-01T21:48:44.875Z,94815.13
2018-10-01T21:51:12.908Z,94813.78
2018-10-01T21:53:40.921Z,94807.80
2018-10-01T21:56:08.845Z,94810.31
2018-10-01T21:58:36.738Z,94807.16
2018-10-01T22:01:10.225Z,94805.79
2018-10-01T22:03:38.199Z,94814.23
2018-10-01T22:06:06.186Z,94829.15
2018-10-01T22:08:34.095Z,94825.78
2018-10-01T22:11:01.970Z,94824.17
2018-10-01T22:13:30.084Z,94823.54
2018-10-01T22:15:58.010Z,94827.61
2018-10-01T22:18:25.939Z,94836.36
2018-10-01T22:20:53.869Z,94819.79
2018-10-01T22:23:21.841Z,94826.88
2018-10-01T22:25:49.746Z,94814.83
2018-10-01T22:28:17.661Z,94822.06
2018-10-01T22:30:45.756Z,94827.46
2018-10-01T22:33:13.717Z,94832.00
2018-10-01T22:35:41.626Z,94827.84
2018-10-01T22:38:10.283Z,94828.88
2018-10-01T22:40:38.399Z,94833.09
2018-10-01T22:43:06.600Z,94841.39
2018-10-01T22:45:35.944Z,94837.61
2018-10-01T22:48:04.116Z,94850.88
2018-10-01T22:50:34.596Z,94843.79
2018-10-01T22:53:02.615Z,94853.41
2018-10-01T22:55:30.562Z,94851.19
2018-10-01T22:57:58.912Z,94860.35
2018-10-01T23:00:28.109Z,94866.93
2018-10-01T23:02:56.146Z,94864.36
2018-10-01T23:05:26.254Z,94865.95
2018-10-01T23:07:54.689Z,94867.77
2018-10-01T23:10:24.256Z,94871.52
2018-10-01T23:12:52.379Z,94872.00
2018-10-01T23:15:21.855Z,94865.23
2018-10-01T23:17:50.549Z,94865.38
2018-10-01T23:20:19.707Z,94859.38
2018-10-01T23:22:48.084Z,94869.30
2018-10-01T23:25:16.019Z,94870.06
2018-10-01T23:27:43.968Z,94861.94
2018-10-01T23:30:12.656Z,94861.17
2018-10-01T23:32:40.657Z,94864.64
2018-10-01T23:35:08.668Z,94876.79
2018-10-01T23:37:37.493Z,94870.23
2018-10-01T23:40:05.557Z,94873.69
2018-10-01T23:42:34.327Z,94874.12
2018-10-01T23:45:03.074Z,94869.02
2018-10-01T23:47:31.517Z,94868.70
2018-10-01T23:49:59.825Z,94869.91
2018-10-01T23:52:28.058Z,94875.78
2018-10-01T23:54:56.610Z,94867.52
2018-10-01T23:57:25.273Z,94887.51
2018-10-01T23:59:53.273Z,94889.77
